Aeroporto :
LOGIN :

Iscrizione | Disclaimer

   EN    FR    IT 

 










Sommario :    VFR   VFR Marginale   IFR   IFR Intensivo   IFR Molto Intensivo
Visibilità : 
Base nubi : 
>= 8 km
>= 3000ft
5 / 8 km
1000 / 3000 ft
1500m / 5 km
500 / 1000 ft
800 / 1500m
200 / 500 ft
< 800m
< 200 ft
Simboli :   Temporali  Nebbia  Neve Forte  Precipitazioni Forti  Vento > 20 kt
SIGMETs :   Varie  Temporali  Ghiacco  Turbolenza  Onda orograficha  Ceneri Vulcaniche







- Altitudine del aeroporto : 112 ft
- Codice IATA : SVQ


LEZL - Sevilla San Pablo

ULTIMO METAR :
  • 181900Z 25011KT 210V280 CAVOK 28/15 Q1015 NOSIG

METARs OBSOLETI :
  • 181830Z 23010KT 200V290 CAVOK 29/14 Q1015 NOSIG
  • 181800Z 23014KT 200V280 CAVOK 30/15 Q1014 NOSIG
  • 181730Z 24014KT 200V280 CAVOK 33/15 Q1014 NOSIG
  • 181700Z 23015KT 200V260 CAVOK 34/14 Q1014 NOSIG
  • 181630Z 23012KT 190V280 CAVOK 35/15 Q1014 NOSIG

TAF TAF LEZL
Valido dal 18 a 15 ore il 19 a 15 ore UTC


181400Z 1815/1915 34006KT CAVOK TX38/1816Z TN20/1905Z
BECMG 1815/1817 25012KT
PROB40
TEMPO 1815/1818 23016G30KT
BECMG 1823/1902 VRB03KT
Nessun NOTAM noto per questo aeroporto.



MetMap, La meteo Aeronautica in un colpo d'occhio ! - Copyright ORBIFLY Dicembre 2007 - Disclaimer

ORBIFLY MET'MAP TEAM :

Programmazione e sviluppo : Alexandra Zaïnal
Concezione e sviluppo : Baudouin d'Aumeries
Co-Programmazione e sviluppo : Marc-Olivier Méhu
Supporto tecnico e logistico : Manuel Goepfert
Aiuto per la traduzione : Arnaldo La Scala

Contatto : metmap@orbifly.com




FONTI E CREDITI :

   NOAA